sensor_id;sensor_type;location;lat;lon;timestamp;P1;durP1;ratioP1;P2;durP2;ratioP2
23596;SDS011;40226;50.874;4.394;2023-09-19T00:00:16;17.48;;;3.03;;
23596;SDS011;40226;50.874;4.394;2023-09-19T00:02:45;19.25;;;3.83;;
23596;SDS011;40226;50.874;4.394;2023-09-19T00:05:22;16.48;;;3.33;;
23596;SDS011;40226;50.874;4.394;2023-09-19T00:07:49;19.92;;;3.58;;
23596;SDS011;40226;50.874;4.394;2023-09-19T00:10:19;19.27;;;3.67;;
23596;SDS011;40226;50.874;4.394;2023-09-19T00:12:49;21.45;;;4.18;;
23596;SDS011;40226;50.874;4.394;2023-09-19T00:15:22;13.65;;;3.05;;
23596;SDS011;40226;50.874;4.394;2023-09-19T00:17:48;19.20;;;3.42;;
23596;SDS011;40226;50.874;4.394;2023-09-19T00:20:14;16.10;;;3.05;;
23596;SDS011;40226;50.874;4.394;2023-09-19T00:22:43;16.45;;;3.08;;
23596;SDS011;40226;50.874;4.394;2023-09-19T00:25:10;15.55;;;3.10;;
23596;SDS011;40226;50.874;4.394;2023-09-19T00:27:37;14.93;;;3.08;;
23596;SDS011;40226;50.874;4.394;2023-09-19T00:30:10;11.40;;;2.90;;
23596;SDS011;40226;50.874;4.394;2023-09-19T00:32:45;16.23;;;2.58;;
23596;SDS011;40226;50.874;4.394;2023-09-19T00:35:12;16.77;;;3.13;;
23596;SDS011;40226;50.874;4.394;2023-09-19T00:37:40;10.93;;;2.80;;
23596;SDS011;40226;50.874;4.394;2023-09-19T00:40:07;13.82;;;3.22;;
23596;SDS011;40226;50.874;4.394;2023-09-19T00:42:51;14.57;;;3.00;;
23596;SDS011;40226;50.874;4.394;2023-09-19T00:45:25;15.27;;;2.65;;
23596;SDS011;40226;50.874;4.394;2023-09-19T00:47:51;21.80;;;3.42;;
23596;SDS011;40226;50.874;4.394;2023-09-19T00:50:18;12.30;;;2.83;;
23596;SDS011;40226;50.874;4.394;2023-09-19T00:52:46;15.55;;;3.08;;
23596;SDS011;40226;50.874;4.394;2023-09-19T00:55:18;17.60;;;3.20;;
23596;SDS011;40226;50.874;4.394;2023-09-19T00:57:44;20.25;;;3.53;;
23596;SDS011;40226;50.874;4.394;2023-09-19T01:00:11;17.38;;;3.83;;
23596;SDS011;40226;50.874;4.394;2023-09-19T01:02:41;15.63;;;3.10;;
23596;SDS011;40226;50.874;4.394;2023-09-19T01:05:08;10.98;;;2.72;;
23596;SDS011;40226;50.874;4.394;2023-09-19T01:07:35;13.18;;;3.60;;
23596;SDS011;40226;50.874;4.394;2023-09-19T01:10:03;13.63;;;2.80;;
23596;SDS011;40226;50.874;4.394;2023-09-19T01:23:17;11.63;;;2.92;;
23596;SDS011;40226;50.874;4.394;2023-09-19T01:28:52;15.57;;;3.80;;
23596;SDS011;40226;50.874;4.394;2023-09-19T01:31:44;16.05;;;3.28;;
23596;SDS011;40226;50.874;4.394;2023-09-19T01:34:10;16.58;;;3.20;;
23596;SDS011;40226;50.874;4.394;2023-09-19T01:36:36;14.48;;;3.13;;
23596;SDS011;40226;50.874;4.394;2023-09-19T01:39:04;12.65;;;2.67;;
23596;SDS011;40226;50.874;4.394;2023-09-19T01:44:11;20.10;;;2.92;;
23596;SDS011;40226;50.874;4.394;2023-09-19T01:46:45;18.67;;;3.70;;
23596;SDS011;40226;50.874;4.394;2023-09-19T01:54:51;14.35;;;3.15;;
23596;SDS011;40226;50.874;4.394;2023-09-19T01:57:31;24.50;;;3.92;;
23596;SDS011;40226;50.874;4.394;2023-09-19T02:00:01;19.83;;;3.00;;
23596;SDS011;40226;50.874;4.394;2023-09-19T02:02:38;17.33;;;3.50;;
23596;SDS011;40226;50.874;4.394;2023-09-19T02:05:07;20.02;;;3.30;;
23596;SDS011;40226;50.874;4.394;2023-09-19T02:07:33;16.23;;;3.22;;
23596;SDS011;40226;50.874;4.394;2023-09-19T02:10:00;17.95;;;3.22;;
23596;SDS011;40226;50.874;4.394;2023-09-19T02:12:28;22.13;;;3.88;;
23596;SDS011;40226;50.874;4.394;2023-09-19T02:14:55;11.80;;;2.70;;
23596;SDS011;40226;50.874;4.394;2023-09-19T02:17:22;17.60;;;3.40;;
23596;SDS011;40226;50.874;4.394;2023-09-19T02:19:51;17.73;;;3.50;;
23596;SDS011;40226;50.874;4.394;2023-09-19T02:22:20;16.48;;;3.58;;
23596;SDS011;40226;50.874;4.394;2023-09-19T02:24:46;19.70;;;4.65;;
23596;SDS011;40226;50.874;4.394;2023-09-19T02:27:13;17.85;;;3.08;;
23596;SDS011;40226;50.874;4.394;2023-09-19T02:29:40;19.05;;;4.13;;
23596;SDS011;40226;50.874;4.394;2023-09-19T02:32:06;15.30;;;3.38;;
23596;SDS011;40226;50.874;4.394;2023-09-19T02:34:34;16.15;;;3.03;;
23596;SDS011;40226;50.874;4.394;2023-09-19T02:37:01;13.80;;;3.17;;
23596;SDS011;40226;50.874;4.394;2023-09-19T02:39:30;14.88;;;2.95;;
23596;SDS011;40226;50.874;4.394;2023-09-19T02:41:59;21.92;;;3.13;;
23596;SDS011;40226;50.874;4.394;2023-09-19T02:44:25;20.15;;;3.78;;
23596;SDS011;40226;50.874;4.394;2023-09-19T02:46:50;18.20;;;2.85;;
23596;SDS011;40226;50.874;4.394;2023-09-19T02:49:16;19.17;;;3.65;;
23596;SDS011;40226;50.874;4.394;2023-09-19T02:51:43;20.20;;;3.35;;
23596;SDS011;40226;50.874;4.394;2023-09-19T02:54:09;17.13;;;2.75;;
23596;SDS011;40226;50.874;4.394;2023-09-19T02:56:35;20.77;;;3.83;;
23596;SDS011;40226;50.874;4.394;2023-09-19T02:59:02;21.55;;;3.95;;
23596;SDS011;40226;50.874;4.394;2023-09-19T03:01:28;19.23;;;3.10;;
23596;SDS011;40226;50.874;4.394;2023-09-19T03:03:53;18.77;;;3.35;;
23596;SDS011;40226;50.874;4.394;2023-09-19T03:06:19;12.38;;;2.97;;
23596;SDS011;40226;50.874;4.394;2023-09-19T03:08:46;15.63;;;2.95;;
23596;SDS011;40226;50.874;4.394;2023-09-19T03:11:13;15.57;;;3.45;;
23596;SDS011;40226;50.874;4.394;2023-09-19T03:13:41;15.93;;;3.00;;
23596;SDS011;40226;50.874;4.394;2023-09-19T03:16:07;15.45;;;3.40;;
23596;SDS011;40226;50.874;4.394;2023-09-19T03:18:34;16.55;;;3.22;;
23596;SDS011;40226;50.874;4.394;2023-09-19T03:21:00;15.48;;;2.90;;
23596;SDS011;40226;50.874;4.394;2023-09-19T03:23:26;18.02;;;3.33;;
23596;SDS011;40226;50.874;4.394;2023-09-19T03:25:53;19.02;;;2.90;;
23596;SDS011;40226;50.874;4.394;2023-09-19T03:28:19;17.10;;;3.10;;
23596;SDS011;40226;50.874;4.394;2023-09-19T03:30:46;19.48;;;3.45;;
23596;SDS011;40226;50.874;4.394;2023-09-19T03:33:25;13.00;;;2.83;;
23596;SDS011;40226;50.874;4.394;2023-09-19T03:35:52;17.85;;;3.47;;
23596;SDS011;40226;50.874;4.394;2023-09-19T03:38:18;18.70;;;3.17;;
23596;SDS011;40226;50.874;4.394;2023-09-19T03:40:44;14.55;;;3.22;;
23596;SDS011;40226;50.874;4.394;2023-09-19T03:43:10;14.95;;;2.92;;
23596;SDS011;40226;50.874;4.394;2023-09-19T03:45:36;16.08;;;3.20;;
23596;SDS011;40226;50.874;4.394;2023-09-19T03:48:06;18.75;;;3.20;;
23596;SDS011;40226;50.874;4.394;2023-09-19T03:50:36;14.38;;;3.30;;
23596;SDS011;40226;50.874;4.394;2023-09-19T03:53:02;17.80;;;2.92;;
23596;SDS011;40226;50.874;4.394;2023-09-19T03:55:28;16.33;;;3.70;;
23596;SDS011;40226;50.874;4.394;2023-09-19T03:57:54;13.65;;;3.80;;
23596;SDS011;40226;50.874;4.394;2023-09-19T04:00:20;15.18;;;3.28;;
23596;SDS011;40226;50.874;4.394;2023-09-19T04:02:48;16.75;;;3.38;;
23596;SDS011;40226;50.874;4.394;2023-09-19T04:05:14;17.80;;;3.40;;
23596;SDS011;40226;50.874;4.394;2023-09-19T04:07:40;15.05;;;3.08;;
23596;SDS011;40226;50.874;4.394;2023-09-19T04:10:05;18.55;;;3.47;;
23596;SDS011;40226;50.874;4.394;2023-09-19T04:12:34;18.45;;;2.72;;
23596;SDS011;40226;50.874;4.394;2023-09-19T04:14:59;15.30;;;3.85;;
23596;SDS011;40226;50.874;4.394;2023-09-19T04:17:25;13.70;;;3.17;;
23596;SDS011;40226;50.874;4.394;2023-09-19T04:19:50;22.90;;;3.13;;
23596;SDS011;40226;50.874;4.394;2023-09-19T04:22:16;15.20;;;3.13;;
23596;SDS011;40226;50.874;4.394;2023-09-19T04:24:42;16.27;;;3.35;;
23596;SDS011;40226;50.874;4.394;2023-09-19T04:27:08;17.45;;;3.97;;
23596;SDS011;40226;50.874;4.394;2023-09-19T04:29:34;22.15;;;3.72;;
23596;SDS011;40226;50.874;4.394;2023-09-19T04:32:00;17.55;;;3.88;;
23596;SDS011;40226;50.874;4.394;2023-09-19T04:34:29;17.23;;;3.55;;
23596;SDS011;40226;50.874;4.394;2023-09-19T04:36:55;22.45;;;3.42;;
23596;SDS011;40226;50.874;4.394;2023-09-19T04:39:23;21.23;;;3.53;;
23596;SDS011;40226;50.874;4.394;2023-09-19T04:41:51;18.33;;;3.53;;
23596;SDS011;40226;50.874;4.394;2023-09-19T04:44:16;17.00;;;3.38;;
23596;SDS011;40226;50.874;4.394;2023-09-19T04:46:43;18.75;;;3.47;;
23596;SDS011;40226;50.874;4.394;2023-09-19T04:49:09;12.23;;;3.30;;
23596;SDS011;40226;50.874;4.394;2023-09-19T04:51:35;15.25;;;3.17;;
23596;SDS011;40226;50.874;4.394;2023-09-19T04:54:01;15.25;;;3.15;;
23596;SDS011;40226;50.874;4.394;2023-09-19T04:56:27;15.93;;;3.38;;
23596;SDS011;40226;50.874;4.394;2023-09-19T04:58:57;18.27;;;3.45;;
23596;SDS011;40226;50.874;4.394;2023-09-19T05:01:26;14.95;;;3.20;;
23596;SDS011;40226;50.874;4.394;2023-09-19T05:03:52;20.42;;;3.47;;
23596;SDS011;40226;50.874;4.394;2023-09-19T05:06:20;18.30;;;3.65;;
23596;SDS011;40226;50.874;4.394;2023-09-19T05:08:47;19.55;;;3.60;;
23596;SDS011;40226;50.874;4.394;2023-09-19T05:11:17;17.73;;;3.70;;
23596;SDS011;40226;50.874;4.394;2023-09-19T05:13:43;17.42;;;3.95;;
23596;SDS011;40226;50.874;4.394;2023-09-19T05:16:09;17.80;;;3.25;;
23596;SDS011;40226;50.874;4.394;2023-09-19T05:18:35;19.88;;;3.80;;
23596;SDS011;40226;50.874;4.394;2023-09-19T05:21:04;16.63;;;3.45;;
23596;SDS011;40226;50.874;4.394;2023-09-19T05:23:29;17.00;;;3.78;;
23596;SDS011;40226;50.874;4.394;2023-09-19T05:25:56;19.00;;;3.13;;
23596;SDS011;40226;50.874;4.394;2023-09-19T05:28:24;17.08;;;3.33;;
23596;SDS011;40226;50.874;4.394;2023-09-19T05:30:51;20.77;;;3.97;;
23596;SDS011;40226;50.874;4.394;2023-09-19T05:33:20;15.38;;;3.08;;
23596;SDS011;40226;50.874;4.394;2023-09-19T05:35:47;15.55;;;3.38;;
23596;SDS011;40226;50.874;4.394;2023-09-19T05:38:13;22.83;;;3.90;;
23596;SDS011;40226;50.874;4.394;2023-09-19T05:40:44;19.40;;;3.33;;
23596;SDS011;40226;50.874;4.394;2023-09-19T05:43:10;15.48;;;3.25;;
23596;SDS011;40226;50.874;4.394;2023-09-19T05:45:36;20.45;;;3.00;;
23596;SDS011;40226;50.874;4.394;2023-09-19T05:48:10;16.90;;;3.53;;
23596;SDS011;40226;50.874;4.394;2023-09-19T05:50:38;18.45;;;3.72;;
23596;SDS011;40226;50.874;4.394;2023-09-19T05:53:04;18.95;;;3.47;;
23596;SDS011;40226;50.874;4.394;2023-09-19T05:55:30;16.45;;;3.03;;
23596;SDS011;40226;50.874;4.394;2023-09-19T05:57:56;20.83;;;3.70;;
23596;SDS011;40226;50.874;4.394;2023-09-19T06:00:22;20.83;;;3.33;;
23596;SDS011;40226;50.874;4.394;2023-09-19T06:02:52;23.55;;;3.28;;
23596;SDS011;40226;50.874;4.394;2023-09-19T06:05:19;19.17;;;3.42;;
23596;SDS011;40226;50.874;4.394;2023-09-19T06:07:45;16.10;;;3.30;;
23596;SDS011;40226;50.874;4.394;2023-09-19T06:10:11;19.05;;;3.83;;
23596;SDS011;40226;50.874;4.394;2023-09-19T06:12:44;18.05;;;3.38;;
23596;SDS011;40226;50.874;4.394;2023-09-19T06:15:10;20.65;;;3.42;;
23596;SDS011;40226;50.874;4.394;2023-09-19T06:20:15;18.77;;;3.70;;
23596;SDS011;40226;50.874;4.394;2023-09-19T06:22:41;20.25;;;3.40;;
23596;SDS011;40226;50.874;4.394;2023-09-19T06:25:08;15.65;;;3.00;;
23596;SDS011;40226;50.874;4.394;2023-09-19T06:27:36;13.05;;;2.92;;
23596;SDS011;40226;50.874;4.394;2023-09-19T06:30:03;19.95;;;3.03;;
23596;SDS011;40226;50.874;4.394;2023-09-19T06:32:31;23.80;;;3.53;;
23596;SDS011;40226;50.874;4.394;2023-09-19T06:34:57;16.58;;;3.25;;
23596;SDS011;40226;50.874;4.394;2023-09-19T06:37:26;17.15;;;3.35;;
23596;SDS011;40226;50.874;4.394;2023-09-19T06:39:53;12.23;;;2.83;;
23596;SDS011;40226;50.874;4.394;2023-09-19T06:42:18;11.82;;;2.60;;
23596;SDS011;40226;50.874;4.394;2023-09-19T06:44:44;15.35;;;3.22;;
23596;SDS011;40226;50.874;4.394;2023-09-19T06:47:10;15.02;;;3.25;;
23596;SDS011;40226;50.874;4.394;2023-09-19T06:49:36;14.25;;;3.03;;
23596;SDS011;40226;50.874;4.394;2023-09-19T06:52:01;15.98;;;3.28;;
23596;SDS011;40226;50.874;4.394;2023-09-19T06:54:27;17.13;;;2.75;;
23596;SDS011;40226;50.874;4.394;2023-09-19T06:56:59;17.95;;;3.00;;
23596;SDS011;40226;50.874;4.394;2023-09-19T06:59:24;18.15;;;3.50;;
23596;SDS011;40226;50.874;4.394;2023-09-19T07:01:50;22.20;;;3.95;;
23596;SDS011;40226;50.874;4.394;2023-09-19T07:04:16;18.83;;;3.45;;
23596;SDS011;40226;50.874;4.394;2023-09-19T07:06:44;16.20;;;3.55;;
23596;SDS011;40226;50.874;4.394;2023-09-19T07:09:14;15.15;;;3.28;;
23596;SDS011;40226;50.874;4.394;2023-09-19T07:11:40;12.88;;;3.22;;
23596;SDS011;40226;50.874;4.394;2023-09-19T07:14:07;16.00;;;2.80;;
23596;SDS011;40226;50.874;4.394;2023-09-19T07:16:36;16.63;;;3.47;;
23596;SDS011;40226;50.874;4.394;2023-09-19T07:19:03;13.93;;;3.03;;
23596;SDS011;40226;50.874;4.394;2023-09-19T07:21:29;14.38;;;3.65;;
23596;SDS011;40226;50.874;4.394;2023-09-19T07:23:55;11.27;;;3.33;;
23596;SDS011;40226;50.874;4.394;2023-09-19T07:26:21;17.08;;;3.70;;
23596;SDS011;40226;50.874;4.394;2023-09-19T07:28:47;19.40;;;4.18;;
23596;SDS011;40226;50.874;4.394;2023-09-19T07:31:12;14.70;;;3.15;;
23596;SDS011;40226;50.874;4.394;2023-09-19T07:33:39;14.52;;;3.13;;
23596;SDS011;40226;50.874;4.394;2023-09-19T07:36:05;19.92;;;3.60;;
23596;SDS011;40226;50.874;4.394;2023-09-19T07:38:31;15.52;;;3.50;;
23596;SDS011;40226;50.874;4.394;2023-09-19T07:41:00;15.00;;;3.55;;
23596;SDS011;40226;50.874;4.394;2023-09-19T07:43:27;14.77;;;3.15;;
23596;SDS011;40226;50.874;4.394;2023-09-19T07:45:53;22.08;;;3.58;;
23596;SDS011;40226;50.874;4.394;2023-09-19T07:48:18;15.68;;;3.10;;
23596;SDS011;40226;50.874;4.394;2023-09-19T07:50:44;13.70;;;3.20;;
23596;SDS011;40226;50.874;4.394;2023-09-19T07:53:10;19.65;;;3.25;;
23596;SDS011;40226;50.874;4.394;2023-09-19T07:55:38;10.73;;;2.63;;
23596;SDS011;40226;50.874;4.394;2023-09-19T07:58:06;24.60;;;3.50;;
23596;SDS011;40226;50.874;4.394;2023-09-19T08:00:32;15.25;;;3.72;;
23596;SDS011;40226;50.874;4.394;2023-09-19T08:03:00;18.25;;;3.83;;
23596;SDS011;40226;50.874;4.394;2023-09-19T08:05:26;23.70;;;3.47;;
23596;SDS011;40226;50.874;4.394;2023-09-19T08:07:52;12.45;;;2.92;;
23596;SDS011;40226;50.874;4.394;2023-09-19T08:10:18;17.73;;;3.38;;
23596;SDS011;40226;50.874;4.394;2023-09-19T08:12:46;20.10;;;3.88;;
23596;SDS011;40226;50.874;4.394;2023-09-19T08:15:17;16.92;;;3.38;;
23596;SDS011;40226;50.874;4.394;2023-09-19T08:17:45;11.48;;;2.92;;
23596;SDS011;40226;50.874;4.394;2023-09-19T08:20:11;11.75;;;2.97;;
23596;SDS011;40226;50.874;4.394;2023-09-19T08:22:52;22.73;;;3.25;;
23596;SDS011;40226;50.874;4.394;2023-09-19T08:25:21;15.30;;;3.08;;
23596;SDS011;40226;50.874;4.394;2023-09-19T08:27:48;12.02;;;2.97;;
23596;SDS011;40226;50.874;4.394;2023-09-19T08:30:15;19.23;;;3.28;;
23596;SDS011;40226;50.874;4.394;2023-09-19T08:32:41;15.85;;;3.53;;
23596;SDS011;40226;50.874;4.394;2023-09-19T08:35:11;13.10;;;3.13;;
23596;SDS011;40226;50.874;4.394;2023-09-19T08:37:37;16.90;;;2.72;;
23596;SDS011;40226;50.874;4.394;2023-09-19T08:40:03;16.55;;;3.58;;
23596;SDS011;40226;50.874;4.394;2023-09-19T08:42:28;17.35;;;3.03;;
23596;SDS011;40226;50.874;4.394;2023-09-19T08:44:57;15.45;;;3.03;;
23596;SDS011;40226;50.874;4.394;2023-09-19T08:47:30;12.93;;;2.83;;
23596;SDS011;40226;50.874;4.394;2023-09-19T08:50:10;17.85;;;3.05;;
23596;SDS011;40226;50.874;4.394;2023-09-19T08:52:42;16.38;;;2.88;;
23596;SDS011;40226;50.874;4.394;2023-09-19T08:55:12;15.57;;;3.42;;
23596;SDS011;40226;50.874;4.394;2023-09-19T08:57:45;13.48;;;3.10;;
23596;SDS011;40226;50.874;4.394;2023-09-19T09:00:14;15.82;;;3.45;;
23596;SDS011;40226;50.874;4.394;2023-09-19T09:02:42;13.15;;;2.63;;
23596;SDS011;40226;50.874;4.394;2023-09-19T09:05:11;13.65;;;2.80;;
23596;SDS011;40226;50.874;4.394;2023-09-19T09:07:37;16.27;;;2.72;;
23596;SDS011;40226;50.874;4.394;2023-09-19T09:10:04;11.60;;;2.78;;
23596;SDS011;40226;50.874;4.394;2023-09-19T09:12:31;11.77;;;2.70;;
23596;SDS011;40226;50.874;4.394;2023-09-19T09:14:57;16.77;;;2.65;;
23596;SDS011;40226;50.874;4.394;2023-09-19T09:17:23;14.88;;;2.80;;
23596;SDS011;40226;50.874;4.394;2023-09-19T09:19:49;12.05;;;2.95;;
23596;SDS011;40226;50.874;4.394;2023-09-19T09:22:18;15.82;;;3.03;;
23596;SDS011;40226;50.874;4.394;2023-09-19T09:24:56;13.90;;;3.35;;
23596;SDS011;40226;50.874;4.394;2023-09-19T09:27:23;16.65;;;3.13;;
23596;SDS011;40226;50.874;4.394;2023-09-19T09:29:49;9.77;;;2.50;;
23596;SDS011;40226;50.874;4.394;2023-09-19T09:32:16;12.90;;;2.50;;
23596;SDS011;40226;50.874;4.394;2023-09-19T09:35:07;11.45;;;2.20;;
23596;SDS011;40226;50.874;4.394;2023-09-19T09:37:36;12.00;;;2.15;;
23596;SDS011;40226;50.874;4.394;2023-09-19T09:40:04;13.55;;;2.75;;
23596;SDS011;40226;50.874;4.394;2023-09-19T09:42:56;11.93;;;2.50;;
23596;SDS011;40226;50.874;4.394;2023-09-19T09:45:24;16.60;;;2.60;;
23596;SDS011;40226;50.874;4.394;2023-09-19T09:47:59;11.30;;;2.20;;
23596;SDS011;40226;50.874;4.394;2023-09-19T09:50:35;12.73;;;2.75;;
23596;SDS011;40226;50.874;4.394;2023-09-19T09:53:19;13.25;;;2.10;;
23596;SDS011;40226;50.874;4.394;2023-09-19T09:56:04;12.80;;;2.65;;
23596;SDS011;40226;50.874;4.394;2023-09-19T09:58:38;10.95;;;2.38;;
23596;SDS011;40226;50.874;4.394;2023-09-19T10:01:21;7.72;;;1.88;;
23596;SDS011;40226;50.874;4.394;2023-09-19T10:03:52;14.07;;;2.38;;
23596;SDS011;40226;50.874;4.394;2023-09-19T10:06:22;8.45;;;2.30;;
23596;SDS011;40226;50.874;4.394;2023-09-19T10:09:05;10.93;;;3.13;;
23596;SDS011;40226;50.874;4.394;2023-09-19T10:12:03;9.07;;;1.63;;
23596;SDS011;40226;50.874;4.394;2023-09-19T10:14:34;9.98;;;1.95;;
23596;SDS011;40226;50.874;4.394;2023-09-19T10:17:04;11.05;;;2.30;;
23596;SDS011;40226;50.874;4.394;2023-09-19T10:19:37;9.75;;;2.30;;
23596;SDS011;40226;50.874;4.394;2023-09-19T10:22:22;14.05;;;2.22;;
23596;SDS011;40226;50.874;4.394;2023-09-19T10:24:50;15.88;;;2.25;;
23596;SDS011;40226;50.874;4.394;2023-09-19T10:27:18;11.07;;;2.13;;
23596;SDS011;40226;50.874;4.394;2023-09-19T10:29:45;9.55;;;2.53;;
23596;SDS011;40226;50.874;4.394;2023-09-19T10:32:19;13.25;;;2.10;;
23596;SDS011;40226;50.874;4.394;2023-09-19T10:34:50;9.43;;;2.00;;
23596;SDS011;40226;50.874;4.394;2023-09-19T10:37:20;9.70;;;2.03;;
23596;SDS011;40226;50.874;4.394;2023-09-19T10:39:50;10.93;;;2.00;;
23596;SDS011;40226;50.874;4.394;2023-09-19T10:42:19;10.13;;;2.05;;
23596;SDS011;40226;50.874;4.394;2023-09-19T10:44:45;8.20;;;2.22;;
23596;SDS011;40226;50.874;4.394;2023-09-19T10:47:15;9.18;;;2.13;;
23596;SDS011;40226;50.874;4.394;2023-09-19T10:49:44;6.30;;;1.80;;
23596;SDS011;40226;50.874;4.394;2023-09-19T10:52:11;8.77;;;2.00;;
23596;SDS011;40226;50.874;4.394;2023-09-19T10:54:48;7.88;;;1.85;;
23596;SDS011;40226;50.874;4.394;2023-09-19T10:57:23;6.83;;;1.83;;
23596;SDS011;40226;50.874;4.394;2023-09-19T11:00:08;5.82;;;1.70;;
23596;SDS011;40226;50.874;4.394;2023-09-19T11:05:40;6.65;;;1.80;;
23596;SDS011;40226;50.874;4.394;2023-09-19T11:08:07;9.93;;;1.70;;
23596;SDS011;40226;50.874;4.394;2023-09-19T11:10:49;10.80;;;1.80;;
23596;SDS011;40226;50.874;4.394;2023-09-19T11:13:31;7.40;;;1.80;;
23596;SDS011;40226;50.874;4.394;2023-09-19T11:26:44;6.55;;;1.60;;
23596;SDS011;40226;50.874;4.394;2023-09-19T11:29:31;9.20;;;1.73;;
23596;SDS011;40226;50.874;4.394;2023-09-19T11:31:57;7.65;;;1.65;;
23596;SDS011;40226;50.874;4.394;2023-09-19T11:40:09;10.15;;;1.40;;
23596;SDS011;40226;50.874;4.394;2023-09-19T11:42:42;9.02;;;1.75;;
23596;SDS011;40226;50.874;4.394;2023-09-19T11:48:22;6.72;;;1.75;;
23596;SDS011;40226;50.874;4.394;2023-09-19T11:50:52;8.90;;;1.75;;
23596;SDS011;40226;50.874;4.394;2023-09-19T11:53:18;6.95;;;1.63;;
23596;SDS011;40226;50.874;4.394;2023-09-19T11:55:45;10.52;;;1.98;;
23596;SDS011;40226;50.874;4.394;2023-09-19T11:58:11;8.80;;;1.75;;
23596;SDS011;40226;50.874;4.394;2023-09-19T12:00:39;9.95;;;1.70;;
23596;SDS011;40226;50.874;4.394;2023-09-19T12:03:10;8.88;;;1.58;;
23596;SDS011;40226;50.874;4.394;2023-09-19T12:05:36;9.98;;;1.55;;
23596;SDS011;40226;50.874;4.394;2023-09-19T12:08:05;7.40;;;1.45;;
23596;SDS011;40226;50.874;4.394;2023-09-19T12:10:43;8.52;;;1.30;;
23596;SDS011;40226;50.874;4.394;2023-09-19T12:13:19;7.60;;;1.92;;
23596;SDS011;40226;50.874;4.394;2023-09-19T12:15:46;9.93;;;1.60;;
23596;SDS011;40226;50.874;4.394;2023-09-19T12:18:31;9.13;;;1.50;;
23596;SDS011;40226;50.874;4.394;2023-09-19T12:20:58;7.50;;;1.40;;
23596;SDS011;40226;50.874;4.394;2023-09-19T12:23:25;4.95;;;1.90;;
23596;SDS011;40226;50.874;4.394;2023-09-19T12:25:51;10.38;;;1.85;;
23596;SDS011;40226;50.874;4.394;2023-09-19T12:28:19;9.52;;;1.67;;
23596;SDS011;40226;50.874;4.394;2023-09-19T12:30:47;6.10;;;1.50;;
23596;SDS011;40226;50.874;4.394;2023-09-19T12:33:19;7.18;;;1.65;;
23596;SDS011;40226;50.874;4.394;2023-09-19T12:35:46;6.30;;;1.70;;
23596;SDS011;40226;50.874;4.394;2023-09-19T12:38:25;5.30;;;1.67;;
23596;SDS011;40226;50.874;4.394;2023-09-19T12:40:58;3.67;;;1.15;;
23596;SDS011;40226;50.874;4.394;2023-09-19T12:43:25;7.57;;;1.60;;
23596;SDS011;40226;50.874;4.394;2023-09-19T12:45:52;8.80;;;1.75;;
23596;SDS011;40226;50.874;4.394;2023-09-19T12:48:22;7.57;;;1.50;;
23596;SDS011;40226;50.874;4.394;2023-09-19T12:53:32;8.07;;;1.58;;
23596;SDS011;40226;50.874;4.394;2023-09-19T12:56:09;7.85;;;1.65;;
23596;SDS011;40226;50.874;4.394;2023-09-19T12:58:53;8.30;;;1.73;;
23596;SDS011;40226;50.874;4.394;2023-09-19T13:01:26;5.80;;;1.55;;
23596;SDS011;40226;50.874;4.394;2023-09-19T13:04:11;7.40;;;1.70;;
23596;SDS011;40226;50.874;4.394;2023-09-19T13:06:44;6.95;;;1.50;;
23596;SDS011;40226;50.874;4.394;2023-09-19T13:09:12;9.00;;;1.50;;
23596;SDS011;40226;50.874;4.394;2023-09-19T13:11:39;7.97;;;1.70;;
23596;SDS011;40226;50.874;4.394;2023-09-19T13:16:57;10.15;;;1.92;;
23596;SDS011;40226;50.874;4.394;2023-09-19T13:25:08;5.63;;;1.40;;
23596;SDS011;40226;50.874;4.394;2023-09-19T13:27:39;10.05;;;1.70;;
23596;SDS011;40226;50.874;4.394;2023-09-19T13:30:09;6.72;;;1.65;;
23596;SDS011;40226;50.874;4.394;2023-09-19T13:32:36;5.40;;;1.70;;
23596;SDS011;40226;50.874;4.394;2023-09-19T13:35:02;5.50;;;1.58;;
23596;SDS011;40226;50.874;4.394;2023-09-19T13:37:30;6.85;;;2.03;;
23596;SDS011;40226;50.874;4.394;2023-09-19T13:40:00;6.40;;;1.60;;
23596;SDS011;40226;50.874;4.394;2023-09-19T13:42:25;7.60;;;1.60;;
23596;SDS011;40226;50.874;4.394;2023-09-19T13:44:54;4.32;;;1.60;;
23596;SDS011;40226;50.874;4.394;2023-09-19T13:47:21;6.90;;;1.55;;
23596;SDS011;40226;50.874;4.394;2023-09-19T13:49:49;7.05;;;1.65;;
23596;SDS011;40226;50.874;4.394;2023-09-19T13:52:18;7.93;;;1.90;;
23596;SDS011;40226;50.874;4.394;2023-09-19T13:54:44;5.88;;;1.58;;
23596;SDS011;40226;50.874;4.394;2023-09-19T13:57:09;3.88;;;1.40;;
23596;SDS011;40226;50.874;4.394;2023-09-19T13:59:35;6.63;;;2.10;;
23596;SDS011;40226;50.874;4.394;2023-09-19T14:02:01;8.93;;;2.15;;
23596;SDS011;40226;50.874;4.394;2023-09-19T14:04:30;4.95;;;1.92;;
23596;SDS011;40226;50.874;4.394;2023-09-19T14:06:56;7.88;;;1.63;;
23596;SDS011;40226;50.874;4.394;2023-09-19T14:09:23;8.45;;;1.67;;
23596;SDS011;40226;50.874;4.394;2023-09-19T14:11:49;12.35;;;2.35;;
23596;SDS011;40226;50.874;4.394;2023-09-19T14:14:17;7.18;;;2.00;;
23596;SDS011;40226;50.874;4.394;2023-09-19T14:16:44;8.32;;;2.00;;
23596;SDS011;40226;50.874;4.394;2023-09-19T14:19:10;8.45;;;1.90;;
23596;SDS011;40226;50.874;4.394;2023-09-19T14:21:36;7.82;;;2.08;;
23596;SDS011;40226;50.874;4.394;2023-09-19T14:24:03;7.40;;;2.17;;
23596;SDS011;40226;50.874;4.394;2023-09-19T14:26:29;8.20;;;2.05;;
23596;SDS011;40226;50.874;4.394;2023-09-19T14:28:54;7.40;;;2.00;;
23596;SDS011;40226;50.874;4.394;2023-09-19T14:31:20;7.05;;;1.92;;
23596;SDS011;40226;50.874;4.394;2023-09-19T14:33:45;7.50;;;1.95;;
23596;SDS011;40226;50.874;4.394;2023-09-19T14:36:19;7.00;;;2.08;;
23596;SDS011;40226;50.874;4.394;2023-09-19T14:38:45;7.00;;;1.65;;
23596;SDS011;40226;50.874;4.394;2023-09-19T14:41:10;7.55;;;1.60;;
23596;SDS011;40226;50.874;4.394;2023-09-19T14:43:36;6.93;;;1.88;;
23596;SDS011;40226;50.874;4.394;2023-09-19T14:46:02;8.73;;;1.90;;
23596;SDS011;40226;50.874;4.394;2023-09-19T14:48:29;8.02;;;2.38;;
23596;SDS011;40226;50.874;4.394;2023-09-19T14:50:54;8.52;;;1.77;;
23596;SDS011;40226;50.874;4.394;2023-09-19T14:53:20;5.80;;;1.73;;
23596;SDS011;40226;50.874;4.394;2023-09-19T14:55:46;8.73;;;2.03;;
23596;SDS011;40226;50.874;4.394;2023-09-19T14:58:16;7.28;;;2.20;;
23596;SDS011;40226;50.874;4.394;2023-09-19T15:00:43;10.27;;;1.65;;
23596;SDS011;40226;50.874;4.394;2023-09-19T15:03:10;7.47;;;1.95;;
23596;SDS011;40226;50.874;4.394;2023-09-19T15:05:36;6.70;;;2.53;;
23596;SDS011;40226;50.874;4.394;2023-09-19T15:08:02;7.43;;;2.20;;
23596;SDS011;40226;50.874;4.394;2023-09-19T15:10:28;6.53;;;2.42;;
23596;SDS011;40226;50.874;4.394;2023-09-19T15:12:54;6.97;;;2.17;;
23596;SDS011;40226;50.874;4.394;2023-09-19T15:15:20;8.27;;;2.55;;
23596;SDS011;40226;50.874;4.394;2023-09-19T15:17:46;11.27;;;2.83;;
23596;SDS011;40226;50.874;4.394;2023-09-19T15:20:12;12.15;;;2.30;;
23596;SDS011;40226;50.874;4.394;2023-09-19T15:22:39;9.32;;;1.90;;
23596;SDS011;40226;50.874;4.394;2023-09-19T15:25:04;8.50;;;2.22;;
23596;SDS011;40226;50.874;4.394;2023-09-19T15:27:31;9.02;;;2.05;;
23596;SDS011;40226;50.874;4.394;2023-09-19T15:29:58;8.52;;;2.63;;
23596;SDS011;40226;50.874;4.394;2023-09-19T15:32:25;8.00;;;2.10;;
23596;SDS011;40226;50.874;4.394;2023-09-19T15:34:51;8.32;;;2.55;;
23596;SDS011;40226;50.874;4.394;2023-09-19T15:37:17;6.63;;;1.70;;
23596;SDS011;40226;50.874;4.394;2023-09-19T15:39:44;8.80;;;2.30;;
23596;SDS011;40226;50.874;4.394;2023-09-19T15:42:11;8.10;;;2.13;;
23596;SDS011;40226;50.874;4.394;2023-09-19T15:44:36;6.22;;;2.08;;